Terminal Aerodrome Forecast
Issued by NWS Houston/Galveston TX

Home | Current Version | Previous Version | Text Only | Print | Product List | Glossary On
Versions: 1 2 3 4 5 6 7 8 9 10 11 12 13 14 15 16 17 18 19 20 21 22 23 24 25 26 27 28 29 30 31 32 33 34 35 36 37 38 39 40 41 42 43 44 45 46 47
000
FTUS44 KHGX 212326
TAFHOU
TAF
KHOU 212326Z 2200/2224 12010KT P6SM SCT015 OVC035
     FM220300 13013KT P6SM BKN015
     FM220900 12010KT P6SM VCSH OVC015
     FM222100 12010G18KT P6SM VCTS BKN025CB OVC040
      TEMPO 2222/2224 3SM TSRA OVC020CB=

USA.gov is the U.S. government's official web portal to all federal, state and local government web resources and services.